Anthony, Texas
Current Conditions -  °F | °C
As of 5:58 AM on Friday 31 Oct 2014 (Local Time) from KBIF Reporting Station
Few Clouds Few Clouds  
Wind Chill: 55°   Ceiling: Unl
Heat Index: 55°   Visibility: 10mi
Dew Point: 49°   Wind: 5mph
Humidity: 81%   Direction: 50°NE
Pressure: 30.3"   Gusts: NA
Location:  32°N, 106.61°W
Report Text: KBIF 311158Z 05004KT 10SM FEW250 13/09 A3030 RMK AO2A SLP212 T01250093 10174 20120 53009
Loading
Personal Weather Stations






























Interactive Weather Map
Tropical Storm Tracking
New forecast layout! Learn more

10-Day Weather Forecast

Advertisements
Track Severe Weather on mobile